Time;durP1;ratioP1;P1;durP2;ratioP2;P2;SDS_P1;SDS_P2;PMS_P1;PMS_P2;Temp;Humidity;BMP_temperature;BMP_pressure;BME280_temperature;BME280_humidity;BME280_pressure;Samples;Min_cycle;Max_cycle;Signal;HPM_P1;HPM_P2
2021/04/15 00:02:07;;;;;;;4.30;3.33;;;2.20;99.90;;;;;;5055413;28;20104;-77
2021/04/15 00:04:32;;;;;;;6.15;4.13;;;2.00;99.90;;;;;;5061670;28;20447;-77
2021/04/15 00:06:58;;;;;;;6.13;4.00;;;2.10;99.90;;;;;;5054154;28;20131;-77
2021/04/15 00:09:24;;;;;;;8.05;4.18;;;2.40;99.90;;;;;;5040754;28;20074;-77
2021/04/15 00:11:51;;;;;;;3.95;2.95;;;2.30;99.90;;;;;;5051092;28;20097;-77
2021/04/15 00:14:19;;;;;;;4.88;3.92;;;2.20;99.90;;;;;;5032990;28;20089;-77
2021/04/15 00:16:45;;;;;;;5.68;3.55;;;2.20;99.90;;;;;;5058935;28;20089;-78
2021/04/15 00:19:13;;;;;;;3.95;3.28;;;2.20;99.90;;;;;;5050592;28;20160;-78
2021/04/15 00:21:39;;;;;;;5.05;3.70;;;2.20;99.90;;;;;;5037273;28;20099;-77
2021/04/15 00:24:05;;;;;;;4.63;2.83;;;2.00;99.90;;;;;;5049880;28;20077;-77
2021/04/15 00:26:31;;;;;;;4.25;3.67;;;2.00;99.90;;;;;;5063523;28;20077;-77
2021/04/15 00:28:58;;;;;;;6.07;4.20;;;2.20;99.90;;;;;;5051849;28;20097;-77
2021/04/15 00:31:25;;;;;;;5.32;3.97;;;2.20;99.90;;;;;;5051347;28;20094;-78
2021/04/15 00:33:52;;;;;;;4.35;3.38;;;2.00;99.90;;;;;;5053041;28;20095;-78
2021/04/15 00:36:19;;;;;;;4.00;3.13;;;2.00;99.90;;;;;;5056887;28;20069;-78
2021/04/15 00:38:46;;;;;;;4.53;3.85;;;2.10;99.90;;;;;;5063818;28;20073;-77
2021/04/15 00:41:11;;;;;;;5.10;3.00;;;2.20;99.90;;;;;;5055871;28;20093;-77
2021/04/15 00:43:41;;;;;;;4.53;3.47;;;2.00;99.90;;;;;;5052081;28;20088;-78
2021/04/15 00:46:44;;;;;;;4.70;3.28;;;2.00;99.90;;;;;;5035689;28;20085;-77
2021/04/15 00:49:14;;;;;;;4.47;2.80;;;1.90;99.90;;;;;;5034524;28;20188;-78
2021/04/15 00:51:44;;;;;;;4.47;3.75;;;2.00;99.90;;;;;;5049642;28;20478;-77
2021/04/15 00:54:18;;;;;;;6.22;3.63;;;2.00;99.90;;;;;;5032470;28;20168;-77
2021/04/15 00:56:44;;;;;;;4.13;2.72;;;2.00;99.90;;;;;;5035791;28;20078;-77
2021/04/15 00:59:10;;;;;;;4.60;2.88;;;1.90;99.90;;;;;;5040212;28;20089;-77
2021/04/15 01:01:36;;;;;;;7.63;3.05;;;1.70;99.90;;;;;;5047020;28;20120;-77
2021/04/15 01:04:03;;;;;;;3.67;2.97;;;1.60;99.90;;;;;;5053908;28;20836;-78
2021/04/15 01:06:28;;;;;;;5.05;3.40;;;1.20;99.90;;;;;;5049128;28;20081;-77
2021/04/15 01:08:54;;;;;;;4.57;3.53;;;1.10;99.90;;;;;;5056908;28;20093;-77
2021/04/15 01:11:42;;;;;;;4.35;3.08;;;1.20;99.90;;;;;;5039305;28;20095;-77
2021/04/15 01:14:23;;;;;;;4.78;3.88;;;1.20;99.90;;;;;;5050900;28;20078;-78
2021/04/15 01:16:56;;;;;;;7.60;3.85;;;1.40;99.90;;;;;;5049802;28;20096;-78
2021/04/15 01:19:53;;;;;;;5.15;3.95;;;1.50;99.90;;;;;;5059897;28;20073;-79
2021/04/15 01:22:39;;;;;;;6.07;4.22;;;1.20;99.90;;;;;;5064104;28;20143;-77
2021/04/15 01:25:49;;;;;;;7.40;4.45;;;1.50;99.90;;;;;;5060554;28;20164;-78
2021/04/15 01:28:21;;;;;;;5.75;4.07;;;1.60;99.90;;;;;;5052072;28;20108;-78
2021/04/15 01:31:02;;;;;;;6.68;4.18;;;1.60;99.90;;;;;;5043150;28;20074;-78
2021/04/15 01:33:40;;;;;;;5.57;4.18;;;1.20;99.90;;;;;;5048705;28;20203;-79
2021/04/15 01:36:24;;;;;;;5.68;4.30;;;1.30;99.90;;;;;;5055164;28;20077;-77
2021/04/15 01:38:59;;;;;;;6.40;3.97;;;1.50;99.90;;;;;;5053687;28;20442;-77
2021/04/15 01:41:39;;;;;;;4.30;3.63;;;1.50;99.90;;;;;;5052780;28;20092;-77
2021/04/15 01:44:10;;;;;;;4.47;4.07;;;1.50;99.90;;;;;;5035596;28;20077;-78
2021/04/15 01:46:39;;;;;;;4.40;3.65;;;1.40;99.90;;;;;;5056721;28;20093;-77
2021/04/15 01:49:08;;;;;;;6.55;4.30;;;1.50;99.90;;;;;;5036400;28;20086;-78
2021/04/15 01:51:47;;;;;;;4.32;3.75;;;1.40;99.90;;;;;;5064292;28;20183;-77
2021/04/15 01:54:31;;;;;;;5.65;4.07;;;1.40;99.90;;;;;;5047567;28;20905;-78
2021/04/15 01:57:13;;;;;;;8.43;4.32;;;1.00;99.90;;;;;;5080062;28;20151;-77
2021/04/15 01:59:44;;;;;;;4.72;3.50;;;1.20;99.90;;;;;;5075592;28;20088;-76
2021/04/15 02:02:15;;;;;;;5.75;4.07;;;1.20;99.90;;;;;;5069433;28;20093;-76
2021/04/15 02:05:10;;;;;;;7.15;3.53;;;1.10;99.90;;;;;;5053820;28;20562;-78
2021/04/15 02:07:42;;;;;;;6.23;4.83;;;0.90;99.90;;;;;;5064041;28;20188;-76
2021/04/15 02:10:11;;;;;;;7.90;4.70;;;0.50;99.90;;;;;;5065456;28;20088;-76
2021/04/15 02:12:41;;;;;;;5.43;4.20;;;0.20;99.90;;;;;;5062829;28;20089;-76
2021/04/15 02:15:31;;;;;;;5.22;3.95;;;0.00;99.90;;;;;;5054025;28;20073;-78
2021/04/15 02:18:08;;;;;;;5.30;4.57;;;0.00;99.90;;;;;;5059215;28;20109;-77
2021/04/15 02:20:34;;;;;;;8.35;5.22;;;0.10;99.90;;;;;;5060571;28;20426;-77
2021/04/15 02:23:13;;;;;;;6.65;4.75;;;0.00;99.90;;;;;;5064966;28;20093;-77
2021/04/15 02:25:45;;;;;;;6.90;4.50;;;-0.10;99.90;;;;;;5044805;28;20088;-77
2021/04/15 02:28:35;;;;;;;7.70;5.35;;;0.00;99.90;;;;;;5057890;28;20096;-79
2021/04/15 02:31:06;;;;;;;7.50;5.07;;;0.20;99.90;;;;;;5070815;28;20089;-78
2021/04/15 02:33:44;;;;;;;7.30;5.63;;;0.40;99.90;;;;;;5071613;28;20158;-76
2021/04/15 02:36:11;;;;;;;8.45;4.95;;;0.40;99.90;;;;;;5070679;28;20148;-77
2021/04/15 02:38:56;;;;;;;5.82;3.92;;;0.60;99.90;;;;;;5070627;28;20073;-78
2021/04/15 02:41:26;;;;;;;6.15;4.50;;;0.20;99.90;;;;;;5051420;28;20097;-77
2021/04/15 02:44:10;;;;;;;5.75;4.80;;;0.00;99.90;;;;;;5057691;28;20099;-78
2021/04/15 02:46:45;;;;;;;8.60;4.80;;;0.40;99.90;;;;;;5057910;28;20089;-78
2021/04/15 02:49:13;;;;;;;6.75;4.68;;;0.40;99.90;;;;;;5039660;28;20157;-77
2021/04/15 02:51:46;;;;;;;6.85;4.25;;;0.50;99.90;;;;;;5069444;28;20100;-79
2021/04/15 02:54:22;;;;;;;5.63;4.60;;;0.60;99.90;;;;;;5056251;28;20080;-79
2021/04/15 02:56:54;;;;;;;6.70;4.43;;;0.80;99.90;;;;;;5054431;28;20077;-76
2021/04/15 02:59:31;;;;;;;5.30;3.97;;;0.90;99.90;;;;;;5051295;28;20108;-78
2021/04/15 03:02:11;;;;;;;6.32;4.50;;;0.70;99.90;;;;;;5034836;28;20104;-77
2021/04/15 03:04:40;;;;;;;6.45;4.70;;;0.90;99.90;;;;;;5049608;28;20110;-78
2021/04/15 03:07:06;;;;;;;8.10;4.75;;;0.90;99.90;;;;;;5066270;28;20159;-79
2021/04/15 03:09:35;;;;;;;6.80;4.60;;;0.90;99.90;;;;;;5053821;28;20070;-78
2021/04/15 03:12:12;;;;;;;5.22;4.30;;;0.90;99.90;;;;;;5060297;28;20184;-78
2021/04/15 03:14:53;;;;;;;6.60;4.32;;;0.80;99.90;;;;;;5038982;28;20069;-80
2021/04/15 03:17:22;;;;;;;5.55;4.32;;;0.80;99.90;;;;;;5060947;28;20122;-78
2021/04/15 03:19:52;;;;;;;7.50;4.68;;;0.70;99.90;;;;;;5049253;28;20092;-79
2021/04/15 03:22:24;;;;;;;8.00;4.53;;;0.40;99.90;;;;;;5048874;28;20767;-80
2021/04/15 03:24:54;;;;;;;7.30;5.80;;;0.70;99.90;;;;;;5055565;28;20142;-79
2021/04/15 03:27:22;;;;;;;7.82;5.15;;;0.80;99.90;;;;;;5064728;28;20608;-78
2021/04/15 03:30:06;;;;;;;8.50;5.20;;;0.70;99.90;;;;;;5061151;28;20127;-80
2021/04/15 03:32:40;;;;;;;6.25;4.85;;;0.70;99.90;;;;;;5064823;28;20087;-78
2021/04/15 03:35:31;;;;;;;6.43;5.30;;;0.60;99.90;;;;;;5068672;28;20640;-78
2021/04/15 03:38:18;;;;;;;7.00;5.40;;;0.70;99.90;;;;;;5056213;28;20577;-80
2021/04/15 03:40:47;;;;;;;6.88;4.72;;;0.90;99.90;;;;;;5069353;28;20164;-77
2021/04/15 03:43:22;;;;;;;6.97;5.35;;;0.90;99.90;;;;;;5055719;28;20109;-77
2021/04/15 03:46:13;;;;;;;7.85;5.18;;;1.00;99.90;;;;;;5063377;28;20616;-78
2021/04/15 03:48:57;;;;;;;6.28;4.38;;;0.90;99.90;;;;;;5061401;28;20093;-78
2021/04/15 03:51:29;;;;;;;6.50;5.35;;;0.90;99.90;;;;;;5043016;28;20191;-79
2021/04/15 03:54:02;;;;;;;8.77;5.47;;;0.90;99.90;;;;;;5065901;28;20081;-78
2021/04/15 03:56:29;;;;;;;9.88;5.53;;;1.00;99.90;;;;;;5050392;28;20461;-77
2021/04/15 03:59:08;;;;;;;9.57;6.13;;;1.10;99.90;;;;;;5050317;28;20585;-80
2021/04/15 04:01:40;;;;;;;10.20;5.55;;;0.90;99.90;;;;;;5058761;28;20558;-79
2021/04/15 04:04:06;;;;;;;10.20;7.22;;;1.10;99.90;;;;;;5050576;28;20073;-79
2021/04/15 04:06:36;;;;;;;7.82;5.15;;;1.00;99.90;;;;;;5047578;28;20152;-79
2021/04/15 04:09:11;;;;;;;9.43;6.32;;;1.10;99.90;;;;;;5050372;28;20128;-79
2021/04/15 04:11:38;;;;;;;9.40;6.80;;;1.20;99.90;;;;;;5049661;28;20445;-79
2021/04/15 04:14:27;;;;;;;8.52;6.25;;;0.80;99.90;;;;;;5051477;28;20111;-78
2021/04/15 04:17:08;;;;;;;11.40;7.47;;;0.70;99.90;;;;;;5033921;28;20160;-80
2021/04/15 04:19:39;;;;;;;10.18;6.50;;;0.80;99.90;;;;;;5054638;28;20446;-82
2021/04/15 04:22:24;;;;;;;10.45;6.25;;;0.90;99.90;;;;;;5048496;28;20105;-80
2021/04/15 04:25:07;;;;;;;8.87;7.20;;;1.10;99.90;;;;;;5038944;28;20084;-79
2021/04/15 04:28:28;;;;;;;10.15;5.57;;;1.00;99.90;;;;;;5061859;28;20442;-79
2021/04/15 04:31:15;;;;;;;9.00;5.45;;;0.90;99.90;;;;;;4973671;28;20134;-78
2021/04/15 04:33:45;;;;;;;9.73;6.53;;;1.10;99.90;;;;;;4995395;28;20548;-79
2021/04/15 04:36:13;;;;;;;9.13;6.18;;;0.70;99.90;;;;;;5030190;28;20109;-79
2021/04/15 04:38:39;;;;;;;9.82;6.07;;;0.80;99.90;;;;;;5064753;28;20092;-78
2021/04/15 04:41:10;;;;;;;8.35;7.07;;;1.00;99.90;;;;;;5072227;28;20550;-78
2021/04/15 04:43:42;;;;;;;7.53;6.22;;;0.90;99.90;;;;;;5058122;28;20089;-78
2021/04/15 04:46:16;;;;;;;10.90;7.70;;;0.50;99.90;;;;;;5035143;28;20080;-79
2021/04/15 04:48:50;;;;;;;10.82;6.35;;;0.30;99.90;;;;;;5037400;28;20092;-80
2021/04/15 04:51:18;;;;;;;10.57;6.35;;;0.40;99.90;;;;;;5040192;28;20104;-79
2021/04/15 04:53:45;;;;;;;10.93;7.47;;;0.60;99.90;;;;;;5072156;28;20069;-81
2021/04/15 04:56:31;;;;;;;12.70;7.80;;;0.70;99.90;;;;;;5052601;28;20561;-79
2021/04/15 04:59:03;;;;;;;13.32;7.95;;;0.70;99.90;;;;;;5052025;28;20088;-77
2021/04/15 05:01:30;;;;;;;10.60;7.75;;;0.90;99.90;;;;;;5064656;28;20089;-78
2021/04/15 05:03:59;;;;;;;11.18;8.02;;;1.00;99.90;;;;;;5057649;28;20172;-79
2021/04/15 05:06:28;;;;;;;11.43;8.60;;;0.80;99.90;;;;;;5038420;28;20077;-77
2021/04/15 05:09:05;;;;;;;11.32;8.23;;;0.60;99.90;;;;;;5068858;28;20084;-79
2021/04/15 05:11:34;;;;;;;11.02;8.20;;;0.60;99.90;;;;;;5071196;28;20091;-80
2021/04/15 05:14:01;;;;;;;17.30;9.27;;;0.70;99.90;;;;;;5051354;28;20446;-78
2021/04/15 05:16:39;;;;;;;11.52;8.68;;;0.70;99.90;;;;;;5054091;28;20080;-77
2021/04/15 05:19:04;;;;;;;11.48;9.07;;;0.90;99.90;;;;;;5056669;28;20069;-73
2021/04/15 05:21:32;;;;;;;12.20;9.18;;;0.90;99.90;;;;;;5045931;28;20674;-75
2021/04/15 05:24:13;;;;;;;14.52;8.95;;;0.90;99.90;;;;;;5052585;28;20081;-76
2021/04/15 05:26:41;;;;;;;11.93;8.23;;;1.00;99.90;;;;;;5040980;28;20073;-75
2021/04/15 05:29:14;;;;;;;11.45;7.63;;;1.00;99.90;;;;;;5055659;28;20135;-74
2021/04/15 05:31:43;;;;;;;11.55;8.00;;;1.00;99.90;;;;;;5054473;28;20100;-75
2021/04/15 05:34:29;;;;;;;11.63;7.85;;;1.30;99.90;;;;;;5058972;28;20153;-75
2021/04/15 05:36:58;;;;;;;13.98;8.27;;;1.30;99.90;;;;;;5075925;28;20137;-75
2021/04/15 05:39:25;;;;;;;12.20;8.95;;;1.50;99.90;;;;;;5069320;28;20073;-74
2021/04/15 05:41:55;;;;;;;14.25;9.52;;;1.70;99.90;;;;;;5037337;28;20105;-74
2021/04/15 05:44:27;;;;;;;11.55;8.85;;;1.70;99.90;;;;;;5054541;28;20073;-75
2021/04/15 05:46:54;;;;;;;12.20;8.43;;;1.80;99.90;;;;;;5051810;28;20104;-76
2021/04/15 05:49:24;;;;;;;12.25;8.45;;;1.80;99.90;;;;;;5034187;28;20101;-75
2021/04/15 05:52:08;;;;;;;12.48;9.10;;;1.80;99.90;;;;;;5036644;28;20093;-75
2021/04/15 05:54:35;;;;;;;13.55;8.85;;;1.80;99.90;;;;;;5052997;28;20074;-76
2021/04/15 05:57:07;;;;;;;14.68;8.68;;;1.90;99.90;;;;;;5050870;28;20447;-76
2021/04/15 05:59:45;;;;;;;10.25;7.80;;;1.90;99.90;;;;;;5051378;28;20592;-77
2021/04/15 06:02:17;;;;;;;10.85;8.07;;;1.90;99.90;;;;;;5040183;28;20107;-77
2021/04/15 06:05:09;;;;;;;11.65;8.00;;;1.90;99.90;;;;;;5064969;28;20585;-77
2021/04/15 06:07:38;;;;;;;8.70;6.35;;;2.10;99.90;;;;;;5057466;28;20699;-77
2021/04/15 06:10:05;;;;;;;8.98;7.13;;;2.30;99.90;;;;;;5059582;28;20076;-77
2021/04/15 06:12:30;;;;;;;14.07;6.63;;;2.30;99.90;;;;;;5065251;28;20176;-77
2021/04/15 06:15:06;;;;;;;10.52;6.43;;;2.40;99.90;;;;;;5045774;28;21231;-78
2021/04/15 06:18:04;;;;;;;9.73;5.95;;;2.20;99.90;;;;;;5043918;28;20135;-77
2021/04/15 06:20:42;;;;;;;9.32;6.35;;;2.30;99.90;;;;;;5037556;28;20077;-79
2021/04/15 06:23:47;;;;;;;7.28;5.30;;;2.30;99.90;;;;;;5060777;28;20077;-77
2021/04/15 06:26:35;;;;;;;9.57;5.35;;;2.40;99.90;;;;;;5055286;28;20081;-77
2021/04/15 06:29:06;;;;;;;9.00;5.90;;;2.40;99.90;;;;;;5059312;28;20092;-78
2021/04/15 06:31:41;;;;;;;10.27;5.30;;;2.40;99.90;;;;;;5054467;28;20741;-77
2021/04/15 06:34:09;;;;;;;8.45;4.97;;;2.40;99.90;;;;;;5056649;28;20653;-78
2021/04/15 06:36:52;;;;;;;6.53;5.80;;;2.40;99.90;;;;;;5042918;28;20069;-76
2021/04/15 06:39:22;;;;;;;6.60;5.10;;;2.50;99.90;;;;;;5032920;28;20084;-77
2021/04/15 06:42:06;;;;;;;9.82;4.85;;;2.50;99.90;;;;;;5063462;28;20781;-76
2021/04/15 06:45:11;;;;;;;6.47;4.60;;;2.60;99.90;;;;;;5047255;28;20088;-76
2021/04/15 06:48:11;;;;;;;8.82;4.82;;;2.70;99.90;;;;;;4960732;28;20106;-77
2021/04/15 06:50:55;;;;;;;7.00;4.97;;;2.80;99.90;;;;;;5036095;28;20144;-77
2021/04/15 06:53:42;;;;;;;7.60;4.93;;;2.80;99.90;;;;;;5046932;28;20081;-77
2021/04/15 06:56:15;;;;;;;6.35;4.85;;;2.80;99.90;;;;;;5050153;28;20122;-77
2021/04/15 06:58:49;;;;;;;8.00;5.60;;;2.80;99.90;;;;;;5056726;28;20069;-75
2021/04/15 07:01:42;;;;;;;6.15;4.68;;;2.90;99.90;;;;;;5064973;28;20096;-76
2021/04/15 07:04:22;;;;;;;12.18;5.80;;;3.00;99.90;;;;;;5053565;28;20081;-76
2021/04/15 07:06:54;;;;;;;9.00;5.68;;;3.00;99.90;;;;;;5059189;28;20656;-77
2021/04/15 07:09:58;;;;;;;9.98;5.32;;;3.00;99.90;;;;;;5052883;28;20662;-76
2021/04/15 07:13:01;;;;;;;8.25;5.40;;;3.10;99.90;;;;;;5004479;28;20104;-76
2021/04/15 07:15:45;;;;;;;10.10;5.97;;;3.00;99.90;;;;;;5048770;28;20097;-75
2021/04/15 07:18:39;;;;;;;6.93;5.40;;;3.00;99.90;;;;;;5056040;28;20073;-78
2021/04/15 07:21:12;;;;;;;14.57;5.72;;;3.10;99.90;;;;;;5051880;28;20444;-77
2021/04/15 07:24:15;;;;;;;7.68;4.90;;;3.10;99.90;;;;;;5061169;28;20667;-76
2021/04/15 07:27:00;;;;;;;7.75;6.20;;;3.10;99.90;;;;;;5054569;28;20599;-76
2021/04/15 07:29:53;;;;;;;8.43;6.40;;;3.00;99.90;;;;;;5060249;28;20085;-77
2021/04/15 07:33:03;;;;;;;11.00;6.38;;;2.90;99.90;;;;;;5039611;28;20684;-77
2021/04/15 07:35:59;;;;;;;8.25;4.90;;;3.10;99.90;;;;;;4985735;28;20079;-76
2021/04/15 07:38:43;;;;;;;9.23;5.28;;;3.10;99.90;;;;;;5031264;28;20081;-76
2021/04/15 07:41:12;;;;;;;10.23;6.13;;;3.00;99.90;;;;;;5063114;28;20642;-76
2021/04/15 07:43:40;;;;;;;8.10;5.38;;;3.10;99.90;;;;;;5058541;28;20130;-76
2021/04/15 07:46:06;;;;;;;9.60;5.63;;;3.20;99.90;;;;;;5066023;28;20076;-77
2021/04/15 07:48:50;;;;;;;8.43;5.80;;;3.10;99.90;;;;;;5063484;28;20089;-77
2021/04/15 07:51:27;;;;;;;11.60;5.90;;;3.30;99.90;;;;;;5047563;28;20113;-77
2021/04/15 07:53:59;;;;;;;9.20;5.00;;;3.40;99.90;;;;;;5065869;28;20105;-77
2021/04/15 07:56:27;;;;;;;9.38;5.43;;;3.30;99.90;;;;;;5055055;28;20073;-77
2021/04/15 07:58:53;;;;;;;8.35;5.40;;;3.50;99.90;;;;;;5067945;28;20156;-77
2021/04/15 08:01:44;;;;;;;11.10;6.10;;;3.40;99.90;;;;;;5040715;28;20192;-77
2021/04/15 08:04:41;;;;;;;8.48;5.32;;;3.50;99.90;;;;;;5053119;28;20078;-77
2021/04/15 08:07:44;;;;;;;8.80;5.03;;;3.70;99.90;;;;;;5058274;28;20459;-76
2021/04/15 08:10:22;;;;;;;7.20;5.05;;;3.80;99.90;;;;;;5035724;28;20084;-76
2021/04/15 08:12:50;;;;;;;8.25;5.22;;;3.80;99.90;;;;;;5031721;28;20154;-76
2021/04/15 08:15:50;;;;;;;9.68;5.72;;;3.80;99.90;;;;;;5041676;28;20749;-78
2021/04/15 08:18:34;;;;;;;8.10;4.60;;;3.60;99.90;;;;;;5057523;28;20211;-77
2021/04/15 08:21:30;;;;;;;7.82;5.30;;;3.70;99.90;;;;;;5059609;28;20548;-76
2021/04/15 08:24:22;;;;;;;7.50;5.57;;;3.90;99.90;;;;;;5059291;28;20070;-76
2021/04/15 08:26:56;;;;;;;8.85;6.45;;;3.90;99.90;;;;;;5025522;28;20093;-75
2021/04/15 08:29:46;;;;;;;8.15;6.13;;;4.00;99.90;;;;;;5052664;28;20088;-77
2021/04/15 08:32:17;;;;;;;7.25;5.22;;;4.10;99.90;;;;;;5041270;28;20094;-77
2021/04/15 08:34:58;;;;;;;6.15;4.70;;;4.30;99.90;;;;;;5064142;28;20073;-75
2021/04/15 08:37:27;;;;;;;8.73;5.30;;;4.40;99.90;;;;;;5057854;28;20964;-76
2021/04/15 08:40:14;;;;;;;9.60;5.07;;;4.40;99.90;;;;;;5069497;28;20586;-77
2021/04/15 08:42:59;;;;;;;6.32;4.95;;;4.60;99.90;;;;;;5055068;28;20093;-78
2021/04/15 08:45:53;;;;;;;8.10;5.35;;;4.50;99.90;;;;;;5036814;28;20086;-76
2021/04/15 08:48:48;;;;;;;8.43;5.23;;;4.50;99.90;;;;;;5031761;28;20097;-74
2021/04/15 08:51:51;;;;;;;8.45;5.18;;;4.50;99.90;;;;;;5045908;28;20111;-75
2021/04/15 08:54:37;;;;;;;8.52;4.10;;;4.40;99.90;;;;;;5062333;28;20092;-75
2021/04/15 08:57:30;;;;;;;7.60;5.07;;;4.40;99.90;;;;;;5041852;28;20938;-75
2021/04/15 09:00:07;;;;;;;10.82;4.70;;;4.50;99.90;;;;;;5053814;28;20104;-74
2021/04/15 09:02:32;;;;;;;7.10;4.50;;;4.50;99.90;;;;;;5063248;28;20091;-74
2021/04/15 09:05:24;;;;;;;7.88;4.95;;;4.50;99.90;;;;;;5049027;28;20160;-75
2021/04/15 09:07:59;;;;;;;9.18;4.63;;;4.50;99.90;;;;;;5050555;28;20093;-75
2021/04/15 09:10:28;;;;;;;8.20;5.85;;;4.50;99.90;;;;;;5059917;28;20088;-75
2021/04/15 09:12:57;;;;;;;6.65;4.45;;;4.60;99.90;;;;;;5061492;28;20097;-75
2021/04/15 09:15:50;;;;;;;9.88;5.00;;;4.60;99.90;;;;;;5054923;28;20069;-72
2021/04/15 09:18:37;;;;;;;8.43;5.07;;;4.70;99.90;;;;;;5075630;28;20081;-77
2021/04/15 09:21:16;;;;;;;5.80;4.30;;;4.80;99.90;;;;;;5053641;28;20084;-75
2021/04/15 09:24:23;;;;;;;6.45;4.68;;;4.90;99.90;;;;;;5073380;28;20151;-75
2021/04/15 09:27:09;;;;;;;8.93;5.38;;;5.20;99.90;;;;;;5066407;28;20085;-75
2021/04/15 09:30:05;;;;;;;7.82;5.18;;;5.10;99.90;;;;;;5062151;28;20096;-76
2021/04/15 09:33:09;;;;;;;9.43;5.10;;;5.10;99.90;;;;;;5065624;28;20096;-75
2021/04/15 09:36:05;;;;;;;7.88;4.35;;;5.00;99.20;;;;;;5072648;28;20112;-76
2021/04/15 09:38:39;;;;;;;;;;;5.00;97.00;;;;;;5053449;28;20082;-76
2021/04/15 09:41:27;;;;;;;6.65;4.30;;;5.10;97.70;;;;;;5070885;28;19972;-76
2021/04/15 09:44:18;;;;;;;8.45;5.32;;;5.00;98.50;;;;;;5053091;28;20229;-79
2021/04/15 09:47:08;;;;;;;7.47;4.40;;;5.00;98.90;;;;;;5059938;28;20081;-76
2021/04/15 09:49:52;;;;;;;8.00;4.72;;;5.10;99.90;;;;;;5044816;28;20090;-77
2021/04/15 09:52:37;;;;;;;6.57;3.67;;;5.00;99.00;;;;;;5061295;28;20207;-77
2021/04/15 09:55:05;;;;;;;7.75;4.45;;;4.90;98.90;;;;;;5048700;28;20069;-77
2021/04/15 09:57:51;;;;;;;6.72;4.80;;;4.90;98.80;;;;;;5058713;28;20081;-79
2021/04/15 10:00:22;;;;;;;6.93;4.32;;;4.90;98.80;;;;;;5071031;28;20077;-78
2021/04/15 10:02:57;;;;;;;8.20;5.13;;;4.90;98.40;;;;;;5068418;28;20089;-78
2021/04/15 10:05:41;;;;;;;;;;;4.70;98.80;;;;;;5059982;28;20072;-80
2021/04/15 10:08:47;;;;;;;9.55;6.10;;;4.70;99.90;;;;;;5059194;28;20017;-79
2021/04/15 10:11:38;;;;;;;8.48;4.93;;;4.70;99.90;;;;;;5028663;28;20096;-77
2021/04/15 10:14:20;;;;;;;8.50;5.72;;;4.60;99.90;;;;;;5037974;28;20079;-77
2021/04/15 10:16:52;;;;;;;9.30;5.30;;;4.40;99.90;;;;;;5070762;28;20108;-80
2021/04/15 10:19:48;;;;;;;8.00;5.32;;;4.40;99.90;;;;;;5060262;28;20077;-77
2021/04/15 10:22:29;;;;;;;5.25;3.38;;;4.40;99.90;;;;;;5065026;28;20111;-77
2021/04/15 10:25:03;;;;;;;5.78;3.55;;;4.30;95.90;;;;;;5066114;28;20203;-80
2021/04/15 10:28:00;;;;;;;6.20;3.75;;;4.40;98.80;;;;;;5049341;28;20552;-76
2021/04/15 10:31:06;;;;;;;3.33;3.00;;;4.10;98.00;;;;;;5065323;28;20081;-78
2021/04/15 10:33:55;;;;;;;5.80;3.92;;;4.00;97.60;;;;;;4967967;28;20082;-77
2021/04/15 10:36:32;;;;;;;3.55;2.70;;;4.10;98.50;;;;;;4965497;28;20084;-76
2021/04/15 10:39:19;;;;;;;3.97;3.25;;;3.90;99.90;;;;;;5032621;28;20085;-76
2021/04/15 10:42:03;;;;;;;6.68;4.35;;;4.00;98.00;;;;;;5056814;28;20089;-78
2021/04/15 10:44:47;;;;;;;5.00;3.75;;;4.10;96.70;;;;;;5057756;28;20277;-77
2021/04/15 10:47:46;;;;;;;4.32;3.53;;;4.30;97.40;;;;;;5061502;28;20435;-76
2021/04/15 10:50:30;;;;;;;4.85;4.25;;;4.60;97.40;;;;;;5057480;28;20082;-76
2021/04/15 10:53:13;;;;;;;11.30;4.50;;;4.80;96.90;;;;;;5060814;28;20840;-76
2021/04/15 10:55:44;;;;;;;4.68;4.10;;;5.00;96.20;;;;;;5068292;28;20107;-76
2021/04/15 10:58:33;;;;;;;5.60;4.45;;;5.20;96.80;;;;;;5051576;28;20105;-75
2021/04/15 11:01:22;;;;;;;5.00;3.95;;;5.30;97.10;;;;;;5057819;28;20084;-77
2021/04/15 11:03:47;;;;;;;6.78;4.05;;;5.60;98.50;;;;;;5069211;28;20107;-76
2021/04/15 11:06:42;;;;;;;4.57;4.05;;;5.50;95.30;;;;;;5069498;28;20159;-76
2021/04/15 11:09:15;;;;;;;5.50;3.30;;;5.60;93.90;;;;;;5051273;28;20470;-77
2021/04/15 11:11:55;;;;;;;5.35;3.80;;;5.60;93.50;;;;;;5032953;28;20098;-76
2021/04/15 11:14:22;;;;;;;7.20;4.15;;;5.80;95.40;;;;;;5057950;28;20130;-77
2021/04/15 11:16:51;;;;;;;4.90;4.13;;;6.10;96.20;;;;;;5065172;28;20078;-78
2021/04/15 11:19:17;;;;;;;5.07;4.20;;;6.30;95.30;;;;;;5057232;28;20142;-78
2021/04/15 11:21:44;;;;;;;5.45;3.72;;;6.20;93.50;;;;;;5060449;28;20092;-78
2021/04/15 11:24:27;;;;;;;5.57;4.00;;;6.00;93.20;;;;;;5057505;28;20073;-76
2021/04/15 11:26:56;;;;;;;6.25;4.28;;;6.00;94.00;;;;;;5056466;28;20826;-76
2021/04/15 11:29:24;;;;;;;5.65;3.85;;;6.10;92.60;;;;;;5056941;28;20165;-77
2021/04/15 11:31:51;;;;;;;7.82;3.85;;;6.10;91.00;;;;;;5051308;28;20112;-79
2021/04/15 11:34:26;;;;;;;6.20;3.70;;;6.10;91.00;;;;;;5049966;28;20080;-77
2021/04/15 11:37:00;;;;;;;6.70;4.63;;;6.10;90.70;;;;;;5059755;28;20609;-78
2021/04/15 11:39:29;;;;;;;3.90;3.47;;;6.10;90.90;;;;;;5065393;28;20076;-78
2021/04/15 11:42:08;;;;;;;5.10;3.30;;;5.80;96.10;;;;;;5061823;28;20093;-77
2021/04/15 11:44:53;;;;;;;10.80;5.05;;;5.60;98.80;;;;;;5066925;28;20546;-77
2021/04/15 11:47:24;;;;;;;7.47;4.88;;;5.50;99.90;;;;;;5056022;28;20073;-78
2021/04/15 11:49:52;;;;;;;6.07;4.53;;;5.10;99.90;;;;;;5034508;28;20082;-77
2021/04/15 11:52:39;;;;;;;5.35;4.32;;;4.80;99.90;;;;;;5066806;28;20096;-80
2021/04/15 11:55:07;;;;;;;7.35;4.43;;;4.50;99.90;;;;;;5058114;28;20069;-77
2021/04/15 11:57:40;;;;;;;6.35;4.57;;;4.40;99.90;;;;;;5045680;28;20089;-76
2021/04/15 12:00:13;;;;;;;7.45;5.03;;;4.30;99.90;;;;;;5051441;28;20077;-77
2021/04/15 12:03:03;;;;;;;9.85;3.92;;;4.20;99.90;;;;;;5041517;28;20085;-77
2021/04/15 12:05:33;;;;;;;7.22;4.07;;;4.10;99.90;;;;;;5035370;28;20130;-78
2021/04/15 12:08:31;;;;;;;5.63;3.67;;;4.10;99.90;;;;;;5064843;28;20088;-77
2021/04/15 12:11:14;;;;;;;25.85;13.02;;;4.10;99.90;;;;;;5054039;28;20105;-79
2021/04/15 12:13:43;;;;;;;22.45;10.15;;;4.30;99.90;;;;;;5052875;28;20479;-78
2021/04/15 12:16:35;;;;;;;7.68;4.45;;;4.30;99.90;;;;;;5051109;28;20109;-77
2021/04/15 12:19:38;;;;;;;13.52;6.70;;;4.50;99.90;;;;;;5000339;28;20085;-79
2021/04/15 12:22:09;;;;;;;4.88;3.92;;;4.70;99.90;;;;;;5041948;28;20081;-77
2021/04/15 12:24:41;;;;;;;4.20;3.58;;;4.70;99.90;;;;;;5064723;28;20061;-77
2021/04/15 12:27:18;;;;;;;3.75;3.00;;;4.80;99.90;;;;;;5056267;28;20074;-77
2021/04/15 12:29:57;;;;;;;3.60;2.70;;;5.00;99.90;;;;;;5049494;28;20122;-77
2021/04/15 12:32:32;;;;;;;3.67;2.90;;;5.10;99.90;;;;;;5062718;28;20081;-76
2021/04/15 12:35:32;;;;;;;3.47;2.55;;;5.10;99.90;;;;;;5054256;28;20069;-76
2021/04/15 12:37:58;;;;;;;5.32;3.88;;;5.10;99.10;;;;;;5065157;28;20073;-75
2021/04/15 12:40:34;;;;;;;3.95;2.40;;;5.30;96.30;;;;;;5049532;28;20527;-77
2021/04/15 12:43:24;;;;;;;3.50;2.58;;;5.50;96.00;;;;;;5059901;28;20115;-76
2021/04/15 12:46:03;;;;;;;4.13;2.40;;;5.40;95.40;;;;;;5061102;28;20105;-75
2021/04/15 12:48:52;;;;;;;3.33;2.60;;;5.40;97.10;;;;;;5060149;28;20082;-77
2021/04/15 12:51:27;;;;;;;4.82;3.10;;;5.40;96.50;;;;;;5063842;28;20104;-76
2021/04/15 12:53:56;;;;;;;8.30;2.88;;;5.30;97.90;;;;;;5063695;28;20080;-76
2021/04/15 12:56:35;;;;;;;7.75;2.90;;;5.40;97.60;;;;;;5042955;28;20065;-76
2021/04/15 12:59:01;;;;;;;4.00;2.60;;;5.30;95.80;;;;;;5069375;28;20150;-77
2021/04/15 13:01:29;;;;;;;5.10;3.20;;;5.50;96.20;;;;;;5075450;28;20132;-77
2021/04/15 13:04:11;;;;;;;8.77;3.70;;;5.50;93.20;;;;;;5058773;28;20069;-78
2021/04/15 13:07:14;;;;;;;3.03;2.45;;;5.50;94.00;;;;;;5050203;28;20069;-80
2021/04/15 13:09:45;;;;;;;7.22;3.88;;;5.60;95.20;;;;;;5038157;28;20084;-77
2021/04/15 13:12:20;;;;;;;10.75;5.43;;;5.80;92.30;;;;;;5059616;28;20494;-81
2021/04/15 13:14:53;;;;;;;20.38;8.60;;;5.80;83.90;;;;;;5058922;28;20568;-77
2021/04/15 13:17:39;;;;;;;4.63;3.55;;;5.90;88.60;;;;;;5067761;28;20519;-79
2021/04/15 13:20:21;;;;;;;4.97;2.30;;;5.90;84.80;;;;;;5070736;28;20103;-78
2021/04/15 13:23:09;;;;;;;31.77;12.93;;;5.90;85.30;;;;;;5045440;28;20509;-77
2021/04/15 13:25:56;;;;;;;41.70;16.30;;;6.00;84.80;;;;;;5034618;28;20097;-75
2021/04/15 13:28:46;;;;;;;4.63;2.50;;;6.10;84.70;;;;;;5059588;28;20672;-75
2021/04/15 13:31:31;;;;;;;7.75;3.50;;;6.10;89.80;;;;;;5058253;28;20128;-75
2021/04/15 13:34:03;;;;;;;14.07;7.38;;;6.10;89.90;;;;;;5043047;28;20115;-74
2021/04/15 13:36:29;;;;;;;6.75;2.85;;;6.20;90.60;;;;;;5060058;28;20078;-75
2021/04/15 13:38:57;;;;;;;37.42;15.25;;;6.10;90.90;;;;;;5058920;28;20080;-74
2021/04/15 13:41:26;;;;;;;4.03;2.72;;;6.20;90.30;;;;;;5047497;28;20093;-76
2021/04/15 13:43:55;;;;;;;4.07;3.13;;;6.10;90.50;;;;;;5058502;28;20073;-74
2021/04/15 13:49:00;;;;;;;12.70;6.63;;;6.30;92.10;;;;;;5061927;28;20096;-74
2021/04/15 13:51:35;;;;;;;13.45;6.88;;;6.30;91.40;;;;;;5069397;28;20108;-74
2021/04/15 13:54:23;;;;;;;3.83;2.88;;;6.30;90.70;;;;;;5056742;28;20081;-73
2021/04/15 13:56:57;;;;;;;5.22;3.08;;;6.30;92.80;;;;;;5046328;28;20080;-76